Time;durP1;ratioP1;P1;durP2;ratioP2;P2;SDS_P1;SDS_P2;PMS_P1;PMS_P2;Temp;Humidity;BMP_temperature;BMP_pressure;BME280_temperature;BME280_humidity;BME280_pressure;Samples;Min_cycle;Max_cycle;Signal;HPM_P1;HPM_P2
2022/12/12 00:00:42;;;;;;;43.60;19.30;;;-0.70;99.90;;;-1.77;100.00;97009.88;5021040;28;20054;-72
2022/12/12 00:03:10;;;;;;;38.70;17.50;;;-0.70;99.90;;;-1.87;100.00;97012.44;5003637;28;20488;-73
2022/12/12 00:05:38;;;;;;;39.83;17.55;;;-0.70;99.90;;;-1.90;100.00;97011.59;4986943;28;20823;-73
2022/12/12 00:08:05;;;;;;;33.80;16.83;;;-0.70;99.90;;;-2.10;100.00;97013.31;4987580;28;20069;-73
2022/12/12 00:10:33;;;;;;;32.63;16.08;;;-0.80;99.90;;;-2.06;100.00;97009.94;5005959;28;20396;-72
2022/12/12 00:13:01;;;;;;;33.05;14.93;;;-0.70;99.90;;;-2.18;100.00;97012.50;5005660;28;20495;-73
2022/12/12 00:15:28;;;;;;;32.65;15.43;;;-0.70;99.90;;;-2.13;100.00;97009.09;5010838;28;20476;-73
2022/12/12 00:17:55;;;;;;;31.88;14.10;;;-0.70;99.90;;;-2.12;100.00;96999.81;5007762;28;20041;-72
2022/12/12 00:20:22;;;;;;;29.38;14.07;;;-0.70;99.90;;;-2.16;100.00;97004.03;5009291;28;20052;-73
2022/12/12 00:22:50;;;;;;;34.92;14.82;;;-0.60;99.90;;;-2.06;100.00;96997.22;5007370;28;20046;-73
2022/12/12 00:25:17;;;;;;;27.33;13.95;;;-0.60;99.90;;;-2.02;100.00;97001.47;5009543;28;20061;-73
2022/12/12 00:27:44;;;;;;;29.65;14.25;;;-0.60;99.90;;;-2.03;100.00;96998.91;5023477;28;20079;-74
2022/12/12 00:30:12;;;;;;;28.05;13.82;;;-0.60;99.90;;;-1.81;100.00;96989.53;5008082;28;20049;-73
2022/12/12 00:32:39;;;;;;;28.33;12.82;;;-0.60;99.90;;;-1.94;100.00;96989.59;5024557;28;20049;-73
2022/12/12 00:35:06;;;;;;;27.85;12.00;;;-0.60;99.90;;;-1.92;100.00;96990.41;5008241;28;20042;-73
2022/12/12 00:37:33;;;;;;;25.92;13.38;;;-0.60;99.90;;;-2.06;100.00;96984.50;5006092;28;20054;-73
2022/12/12 00:40:00;;;;;;;28.98;13.65;;;-0.60;99.90;;;-1.90;100.00;96986.16;5007298;28;20056;-73
2022/12/12 00:42:27;;;;;;;30.10;12.95;;;-0.60;99.90;;;-1.74;100.00;96984.41;5008173;28;20177;-73
2022/12/12 00:44:54;;;;;;;27.67;11.98;;;-0.50;99.90;;;-1.54;100.00;96986.03;5008998;28;20057;-73
2022/12/12 00:47:21;;;;;;;28.52;14.10;;;-0.50;99.90;;;-1.42;100.00;96985.97;5008395;28;20061;-73
2022/12/12 00:49:48;;;;;;;29.35;13.55;;;-0.40;99.90;;;-1.37;100.00;96989.38;5007567;28;20523;-73
2022/12/12 00:52:15;;;;;;;27.40;13.60;;;-0.30;99.90;;;-1.42;100.00;96987.69;5008914;28;20054;-72
2022/12/12 00:54:42;;;;;;;25.95;13.30;;;-0.30;99.90;;;-1.50;100.00;96985.19;5005111;28;20042;-72
2022/12/12 00:57:09;;;;;;;28.13;12.02;;;-0.30;99.90;;;-1.36;100.00;96985.13;5007259;28;20054;-73
2022/12/12 00:59:36;;;;;;;23.65;12.18;;;-0.30;99.90;;;-1.49;100.00;96980.06;5007267;28;20496;-73
2022/12/12 01:02:03;;;;;;;22.25;11.07;;;-0.30;99.90;;;-1.61;100.00;96985.22;5006947;28;20050;-72
2022/12/12 01:04:30;;;;;;;23.60;12.68;;;-0.40;99.90;;;-1.62;100.00;96983.53;5007343;28;20081;-73
2022/12/12 01:06:57;;;;;;;25.92;12.23;;;-0.40;99.90;;;-1.58;100.00;96985.19;5010258;28;20058;-72
2022/12/12 01:09:24;;;;;;;26.40;13.15;;;-0.40;99.90;;;-1.61;100.00;96985.22;5006096;28;20050;-73
2022/12/12 01:11:50;;;;;;;29.42;12.77;;;-0.40;99.90;;;-1.59;100.00;96985.22;5007943;28;20054;-73
2022/12/12 01:14:17;;;;;;;28.10;13.00;;;-0.50;99.90;;;-1.66;100.00;96986.94;5008464;28;20049;-73
2022/12/12 01:16:47;;;;;;;29.10;12.65;;;-0.50;99.90;;;-1.70;100.00;96983.56;5007622;28;20054;-73
2022/12/12 01:19:14;;;;;;;27.92;12.40;;;-0.60;99.90;;;-1.81;100.00;96989.53;5006327;28;20057;-72
2022/12/12 01:21:41;;;;;;;25.38;12.45;;;-0.70;99.90;;;-1.88;100.00;96992.94;5006151;28;20064;-73
2022/12/12 01:24:08;;;;;;;23.90;12.02;;;-0.80;99.90;;;-1.98;100.00;96987.06;5007620;28;20067;-72
2022/12/12 01:26:36;;;;;;;26.63;11.55;;;-1.00;99.90;;;-2.21;100.00;96993.03;5006447;28;20052;-72
2022/12/12 01:29:03;;;;;;;29.45;12.63;;;-1.20;99.90;;;-2.32;100.00;96995.56;5007862;28;20065;-72
2022/12/12 01:31:30;;;;;;;30.50;13.65;;;-1.30;99.90;;;-2.37;100.00;96999.00;5012372;28;20046;-72
2022/12/12 01:33:57;;;;;;;25.98;12.07;;;-1.40;99.90;;;-2.39;100.00;97000.69;5006401;28;20049;-72
2022/12/12 01:36:24;;;;;;;28.88;13.68;;;-1.60;99.90;;;-2.51;100.00;97006.59;5006649;28;20476;-72
2022/12/12 01:38:55;;;;;;;29.85;13.88;;;-1.60;99.90;;;-2.63;100.00;97004.06;5012022;28;20061;-72
2022/12/12 01:41:23;;;;;;;31.05;15.13;;;-1.70;99.90;;;-2.73;100.00;97010.84;5005976;28;20050;-72
2022/12/12 01:43:50;;;;;;;30.20;14.68;;;-1.70;99.90;;;-2.62;100.00;97009.16;5006422;28;20053;-72
2022/12/12 01:46:40;;;;;;;31.00;14.43;;;-1.80;99.90;;;-2.67;100.00;97013.38;5006840;28;20049;-73
2022/12/12 01:49:22;;;;;;;26.90;12.82;;;-1.80;99.90;;;-2.64;100.00;97018.47;5007202;28;20145;-72
2022/12/12 01:51:55;;;;;;;34.00;14.35;;;-1.90;99.90;;;-2.70;100.00;97023.53;5006828;28;20058;-72
2022/12/12 01:54:30;;;;;;;26.05;13.02;;;-1.90;99.90;;;-2.85;100.00;97021.84;5006411;28;20053;-72
2022/12/12 01:57:02;;;;;;;27.63;13.32;;;-2.10;99.90;;;-2.88;100.00;97024.34;5003005;28;20053;-72
2022/12/12 01:59:32;;;;;;;31.55;12.02;;;-2.10;99.90;;;-2.97;100.00;97022.66;5006395;28;20519;-72
2022/12/12 02:01:59;;;;;;;29.30;12.75;;;-2.20;99.90;;;-2.96;100.00;97026.06;5005056;28;20097;-72
2022/12/12 02:04:27;;;;;;;23.27;11.30;;;-2.20;99.90;;;-3.08;100.00;97024.34;5004652;28;20238;-72
2022/12/12 02:06:55;;;;;;;24.45;10.63;;;-2.30;99.90;;;-3.13;100.00;97030.25;5005052;28;20048;-73
2022/12/12 02:09:24;;;;;;;26.35;11.70;;;-2.30;99.90;;;-3.24;100.00;97033.63;5012288;28;20054;-73
2022/12/12 02:11:54;;;;;;;26.63;10.52;;;-2.40;99.90;;;-3.27;100.00;97025.97;5005816;28;20050;-72
2022/12/12 02:14:37;;;;;;;26.52;11.70;;;-2.40;99.90;;;-3.25;100.00;97034.44;5005476;28;20056;-72
2022/12/12 02:17:50;;;;;;;23.75;9.38;;;-2.50;99.90;;;-3.21;100.00;97031.06;5004957;28;20052;-72
2022/12/12 02:20:45;;;;;;;24.42;9.75;;;-2.50;99.90;;;-3.16;100.00;97038.69;5004047;28;20476;-73
2022/12/12 02:23:58;;;;;;;27.90;11.70;;;-2.60;99.90;;;-3.45;100.00;97041.97;5006235;28;20060;-73
2022/12/12 02:27:03;;;;;;;36.17;11.00;;;-2.60;99.90;;;-3.69;100.00;97037.66;5005655;28;20058;-72
2022/12/12 02:30:23;;;;;;;29.05;11.65;;;-2.70;99.90;;;-3.73;100.00;97048.63;5007029;28;20060;-72
2022/12/12 02:33:12;;;;;;;27.73;10.27;;;-2.80;99.90;;;-3.63;100.00;97057.13;5003822;28;20052;-72
2022/12/12 02:36:03;;;;;;;32.72;12.18;;;-2.80;99.90;;;-3.79;100.00;97051.13;5007002;28;20133;-71
2022/12/12 02:38:41;;;;;;;23.10;10.02;;;-2.80;99.90;;;-3.78;100.00;97053.66;5002776;28;20064;-71
2022/12/12 02:41:26;;;;;;;28.35;11.32;;;-2.90;99.90;;;-3.69;100.00;97052.88;5001840;28;20046;-73
2022/12/12 02:44:17;;;;;;;26.70;10.93;;;-2.90;99.90;;;-3.80;100.00;97055.34;5003498;28;20518;-73
2022/12/12 02:47:11;;;;;;;29.13;9.35;;;-2.90;99.90;;;-3.71;100.00;97057.09;5005394;28;20042;-73
2022/12/12 02:49:51;;;;;;;25.95;11.18;;;-2.90;99.90;;;-3.73;100.00;97057.94;5020687;28;20061;-73
2022/12/12 02:52:19;;;;;;;31.83;12.45;;;-2.90;99.90;;;-3.80;100.00;97054.50;5003909;28;20145;-73
2022/12/12 02:54:47;;;;;;;25.30;10.70;;;-2.90;99.90;;;-3.88;100.00;97059.50;5006301;28;20050;-73
2022/12/12 02:57:18;;;;;;;25.58;10.60;;;-2.90;99.90;;;-3.84;100.00;97062.94;5007133;28;20050;-73
2022/12/12 03:00:16;;;;;;;27.63;11.18;;;-3.00;99.90;;;-3.89;100.00;97062.06;5020208;28;20550;-73
2022/12/12 03:09:44;;;;;;;25.85;9.07;;;-3.30;99.90;;;-4.15;100.00;97062.75;4992393;28;20064;-73
2022/12/12 03:12:26;;;;;;;29.33;10.10;;;-3.30;99.90;;;-4.11;100.00;97061.06;5005230;28;20053;-73
2022/12/12 03:15:50;;;;;;;29.42;11.98;;;-3.30;99.90;;;-4.29;100.00;97059.25;5007833;28;20053;-73
2022/12/12 03:18:36;;;;;;;23.63;8.20;;;-3.40;99.90;;;-4.47;100.00;97058.28;5003708;28;20054;-73
2022/12/12 03:21:07;;;;;;;24.45;9.65;;;-3.50;99.90;;;-4.42;100.00;97049.03;5008891;28;20046;-73
2022/12/12 03:23:41;;;;;;;25.55;9.35;;;-3.50;99.90;;;-4.42;100.00;97053.25;5008198;28;20042;-73
2022/12/12 03:26:18;;;;;;;32.17;12.23;;;-3.60;99.90;;;-4.63;100.00;97064.03;5008907;28;20314;-73
2022/12/12 03:28:51;;;;;;;25.98;9.73;;;-3.70;99.90;;;-4.64;100.00;97062.34;5008005;28;20137;-73
2022/12/12 03:31:24;;;;;;;34.95;9.82;;;-3.70;99.90;;;-4.57;100.00;97060.72;5008709;28;20056;-73
2022/12/12 03:34:06;;;;;;;27.25;10.07;;;-3.70;99.90;;;-4.53;100.00;97065.81;5007063;28;20050;-73
2022/12/12 03:36:52;;;;;;;30.55;9.25;;;-3.70;99.90;;;-4.71;100.00;97060.59;5006737;28;20056;-73
2022/12/12 03:39:37;;;;;;;23.33;8.55;;;-3.80;99.90;;;-4.65;100.00;97065.72;5006624;28;20124;-73
2022/12/12 03:42:34;;;;;;;29.35;10.55;;;-3.90;99.90;;;-4.82;100.00;97063.03;5006208;28;20049;-72
2022/12/12 03:45:13;;;;;;;29.30;10.15;;;-4.00;99.90;;;-4.87;100.00;97065.50;5009026;28;20069;-73
2022/12/12 03:48:02;;;;;;;26.33;10.32;;;-4.00;99.90;;;-4.83;100.00;97063.88;5023034;28;20053;-73
2022/12/12 03:50:41;;;;;;;30.73;9.48;;;-4.00;99.90;;;-4.97;100.00;97071.34;5004655;28;20057;-73
2022/12/12 03:53:51;;;;;;;28.30;11.32;;;-4.00;99.90;;;-4.92;100.00;97076.44;5008759;28;20069;-73
2022/12/12 03:56:50;;;;;;;29.13;10.70;;;-4.10;99.90;;;-5.02;100.00;97072.94;4995273;28;20120;-73
2022/12/12 03:59:36;;;;;;;26.13;9.35;;;-4.10;99.90;;;-5.01;100.00;97071.28;5008371;28;20061;-73
2022/12/12 04:02:26;;;;;;;24.92;9.23;;;-4.10;99.90;;;-5.03;100.00;97072.94;5004990;28;20486;-72
2022/12/12 04:05:24;;;;;;;21.00;8.48;;;-4.10;99.90;;;-5.08;100.00;97068.69;4989689;28;20046;-73
2022/12/12 04:07:59;;;;;;;28.35;9.05;;;-4.10;99.90;;;-5.26;100.00;97076.06;5005409;28;20061;-73
2022/12/12 04:13:29;;;;;;;30.13;10.45;;;-4.30;99.90;;;-5.39;100.00;97074.22;5005798;28;20046;-73
2022/12/12 04:16:13;;;;;;;24.15;9.57;;;-4.40;99.90;;;-5.38;100.00;97073.38;5007137;28;20057;-73
2022/12/12 04:18:55;;;;;;;31.77;11.80;;;-4.50;99.90;;;-5.26;100.00;97071.84;5006175;28;20236;-73
2022/12/12 04:25:08;;;;;;;30.35;9.45;;;-4.40;99.90;;;-5.38;100.00;97081.84;5007265;28;20087;-73
2022/12/12 04:27:43;;;;;;;26.92;10.20;;;-4.50;99.90;;;-5.26;100.00;97088.72;5007373;28;20133;-73
2022/12/12 04:30:12;;;;;;;27.73;9.60;;;-4.40;99.90;;;-5.43;100.00;97080.91;5007754;28;20076;-73
2022/12/12 04:32:51;;;;;;;22.10;7.82;;;-4.50;99.90;;;-5.38;100.00;97083.50;5023052;28;20042;-73
2022/12/12 04:35:32;;;;;;;28.35;9.32;;;-4.50;99.90;;;-5.62;100.00;97095.03;5005860;28;20057;-73
2022/12/12 04:38:16;;;;;;;25.13;8.85;;;-4.60;99.90;;;-5.63;100.00;97098.38;5003354;28;20129;-73
2022/12/12 04:40:48;;;;;;;31.73;9.43;;;-4.60;99.90;;;-5.52;100.00;97084.22;5021934;28;20048;-73
2022/12/12 04:43:20;;;;;;;29.98;10.20;;;-4.60;99.90;;;-5.57;100.00;97088.34;5019419;28;20063;-73
2022/12/12 04:45:59;;;;;;;26.20;9.00;;;-4.70;99.90;;;-5.50;100.00;97081.69;5008952;28;20053;-73
2022/12/12 04:48:36;;;;;;;23.33;8.48;;;-4.70;99.90;;;-5.44;100.00;97086.81;5004694;28;20136;-73
2022/12/12 04:51:08;;;;;;;21.05;7.70;;;-4.70;99.90;;;-5.65;100.00;97089.09;5021114;28;20428;-73
2022/12/12 04:53:42;;;;;;;27.40;8.85;;;-4.70;99.90;;;-5.60;100.00;97090.00;5006757;28;20092;-73
2022/12/12 04:56:14;;;;;;;24.60;9.00;;;-4.70;99.90;;;-5.68;100.00;97089.88;5005412;28;20511;-73
2022/12/12 04:58:42;;;;;;;25.23;8.23;;;-4.80;99.90;;;-5.68;100.00;97090.75;5005734;28;20046;-73
2022/12/12 05:01:15;;;;;;;23.27;8.30;;;-4.80;99.90;;;-5.73;100.00;97094.88;5004493;28;20158;-73
2022/12/12 05:04:07;;;;;;;24.17;9.43;;;-4.80;99.90;;;-5.62;100.00;97092.50;5004217;28;20042;-73
2022/12/12 05:06:45;;;;;;;20.83;8.57;;;-4.80;99.90;;;-5.72;100.00;97093.22;5002624;28;20053;-73
2022/12/12 05:09:15;;;;;;;24.10;8.05;;;-4.80;99.90;;;-5.91;100.00;97099.66;4986709;28;20073;-73
2022/12/12 05:11:42;;;;;;;24.77;9.15;;;-4.90;99.90;;;-5.89;100.00;97103.91;5005238;28;20050;-73
2022/12/12 05:14:10;;;;;;;34.20;12.10;;;-5.00;99.90;;;-5.89;100.00;97098.84;5005366;28;20065;-73
2022/12/12 05:17:10;;;;;;;35.92;13.32;;;-5.00;99.90;;;-5.74;100.00;97103.28;5005555;28;20507;-73
2022/12/12 05:19:37;;;;;;;35.83;12.13;;;-4.90;99.90;;;-5.61;100.00;97101.78;5004652;28;20061;-73
2022/12/12 05:22:04;;;;;;;24.92;9.80;;;-4.70;99.90;;;-5.79;100.00;97106.56;5006411;28;20065;-73
2022/12/12 05:24:31;;;;;;;25.10;8.73;;;-4.70;99.90;;;-5.75;100.00;97103.25;5006180;28;20053;-73
2022/12/12 05:26:58;;;;;;;22.90;8.85;;;-4.70;99.90;;;-5.88;100.00;97098.06;5005931;28;20058;-73
2022/12/12 05:29:25;;;;;;;26.08;10.30;;;-4.60;99.90;;;-5.72;100.00;97110.91;5004726;28;20045;-73
2022/12/12 05:31:52;;;;;;;27.48;9.20;;;-4.70;99.90;;;-5.77;100.00;97113.38;5005745;28;20057;-73
2022/12/12 05:34:19;;;;;;;28.58;9.60;;;-4.70;99.90;;;-5.62;100.00;97102.59;5002707;28;20050;-73
2022/12/12 05:36:46;;;;;;;27.48;10.05;;;-4.60;99.90;;;-5.59;100.00;97105.16;5004953;28;20056;-73
2022/12/12 05:39:13;;;;;;;33.45;11.38;;;-4.60;99.90;;;-5.52;100.00;97106.09;5006115;28;20052;-72
2022/12/12 05:41:40;;;;;;;27.85;10.32;;;-4.60;99.90;;;-5.49;100.00;97104.47;5019713;28;20291;-73
2022/12/12 05:44:07;;;;;;;26.80;9.20;;;-4.60;99.90;;;-5.51;100.00;97098.53;5005391;28;20121;-73
2022/12/12 05:46:34;;;;;;;28.20;9.77;;;-4.50;99.90;;;-5.48;100.00;97100.25;5005906;28;20050;-72
2022/12/12 05:49:01;;;;;;;27.65;9.65;;;-4.60;99.90;;;-5.56;100.00;97107.75;5000180;28;20212;-72
2022/12/12 05:51:28;;;;;;;33.40;11.10;;;-4.60;99.90;;;-5.54;100.00;97105.22;4998926;28;20048;-73
2022/12/12 05:53:55;;;;;;;24.67;9.93;;;-4.60;99.90;;;-5.45;100.00;97105.38;5004548;28;20050;-73
2022/12/12 05:56:22;;;;;;;28.00;9.32;;;-4.60;99.90;;;-5.52;100.00;97108.63;5005105;28;20048;-73
2022/12/12 05:58:49;;;;;;;23.20;9.43;;;-4.60;99.90;;;-5.48;100.00;97093.50;5004660;28;20076;-73
2022/12/12 06:01:16;;;;;;;28.13;10.88;;;-4.50;99.90;;;-5.63;100.00;97100.91;5005595;28;20058;-73
2022/12/12 06:03:42;;;;;;;29.45;10.98;;;-4.40;99.90;;;-5.48;100.00;97102.78;5003165;28;20050;-73
2022/12/12 06:06:09;;;;;;;26.25;9.60;;;-4.30;99.90;;;-5.29;100.00;97117.38;5000761;28;20490;-72
2022/12/12 06:08:36;;;;;;;27.10;9.57;;;-4.20;99.90;;;-5.15;100.00;97112.47;5002731;28;20133;-73
2022/12/12 06:11:06;;;;;;;32.83;12.27;;;-4.10;99.90;;;-5.28;100.00;97110.63;5019796;28;20054;-73
2022/12/12 06:13:34;;;;;;;35.17;13.50;;;-4.00;99.90;;;-5.02;100.00;97112.59;5004523;28;20142;-73
2022/12/12 06:16:06;;;;;;;30.10;11.07;;;-4.00;99.90;;;-4.98;100.00;97114.34;5007653;28;20049;-72
2022/12/12 06:18:34;;;;;;;27.23;11.30;;;-4.00;99.90;;;-4.98;100.00;97111.81;5005548;28;20080;-73
2022/12/12 06:21:09;;;;;;;37.00;16.67;;;-3.90;99.90;;;-4.86;100.00;97102.66;5006830;28;20069;-73
2022/12/12 06:23:41;;;;;;;55.90;22.80;;;-3.80;99.90;;;-4.75;100.00;97112.88;5005822;28;20045;-73
2022/12/12 06:26:11;;;;;;;41.40;17.45;;;-3.70;99.90;;;-4.79;100.00;97115.38;5004506;28;20046;-72
2022/12/12 06:28:38;;;;;;;54.28;18.50;;;-3.60;99.90;;;-4.82;100.00;97113.66;5005858;28;20060;-73
2022/12/12 06:31:06;;;;;;;53.65;19.17;;;-3.60;99.90;;;-4.92;100.00;97132.13;5005347;28;20061;-73
2022/12/12 06:33:38;;;;;;;67.75;23.77;;;-3.50;99.90;;;-5.00;100.00;97138.78;5020843;28;20088;-73
2022/12/12 06:36:25;;;;;;;54.53;19.20;;;-3.50;99.90;;;-4.82;100.00;97136.44;5011468;28;20140;-74
2022/12/12 06:38:56;;;;;;;49.75;18.98;;;-3.40;99.90;;;-4.77;100.00;97144.09;5006784;28;20049;-73
2022/12/12 06:41:26;;;;;;;63.47;21.40;;;-3.50;99.90;;;-4.85;100.00;97152.44;5006218;28;20060;-73
2022/12/12 06:43:53;;;;;;;113.00;22.73;;;-3.50;99.90;;;-4.82;100.00;97151.63;5006295;28;20074;-73
2022/12/12 06:46:23;;;;;;;129.55;32.22;;;-3.40;99.90;;;-4.73;100.00;97155.97;5006333;28;20050;-73
2022/12/12 06:48:51;;;;;;;87.53;20.73;;;-3.30;99.90;;;-4.73;100.00;97163.56;5004077;28;20519;-73
2022/12/12 06:51:24;;;;;;;179.15;22.20;;;-3.40;99.90;;;-4.70;100.00;97158.50;5005169;28;20058;-73
2022/12/12 06:53:51;;;;;;;69.95;17.67;;;-3.40;99.90;;;-4.58;100.00;97155.25;5007447;28;20062;-73
2022/12/12 06:56:22;;;;;;;59.63;17.70;;;-3.40;99.90;;;-4.53;100.00;97166.28;5020558;28;20057;-73
2022/12/12 06:58:51;;;;;;;43.83;15.60;;;-3.30;99.90;;;-4.39;100.00;97169.81;4986016;28;20049;-73
2022/12/12 07:01:21;;;;;;;64.70;19.60;;;-3.20;99.90;;;-4.31;100.00;97172.41;5006348;28;20049;-74
2022/12/12 07:03:49;;;;;;;57.13;14.93;;;-3.10;99.90;;;-4.30;100.00;97172.44;5004778;28;20092;-73
2022/12/12 07:06:21;;;;;;;130.23;21.05;;;-3.00;99.90;;;-4.29;100.00;97184.28;5020476;28;20057;-73
2022/12/12 07:08:50;;;;;;;42.33;13.23;;;-3.00;99.90;;;-4.28;100.00;97174.97;5005385;28;20065;-72
2022/12/12 07:11:22;;;;;;;46.00;15.18;;;-3.00;99.90;;;-4.18;100.00;97184.34;5005900;28;20072;-72
2022/12/12 07:13:50;;;;;;;102.65;17.75;;;-2.90;99.90;;;-4.18;100.00;97181.81;5001194;28;20184;-74
2022/12/12 07:16:18;;;;;;;119.22;19.27;;;-2.90;99.90;;;-4.24;100.00;97187.69;5005538;28;20069;-73
2022/12/12 07:18:45;;;;;;;50.85;18.02;;;-2.90;99.90;;;-3.88;100.00;97187.97;5005534;28;20053;-72
2022/12/12 07:21:16;;;;;;;52.45;17.98;;;-2.80;99.90;;;-3.76;100.00;97190.63;5004388;28;20054;-74
2022/12/12 07:23:44;;;;;;;51.20;16.77;;;-2.70;99.90;;;-3.74;100.00;97190.63;5003359;28;21583;-73
2022/12/12 07:26:16;;;;;;;67.70;20.00;;;-2.60;99.90;;;-3.67;100.00;97193.25;5003174;28;20050;-73
2022/12/12 07:28:43;;;;;;;50.50;18.67;;;-2.60;99.90;;;-3.68;100.00;97190.69;5004246;28;20583;-73
2022/12/12 07:31:15;;;;;;;48.72;19.30;;;-2.60;99.90;;;-3.66;100.00;97191.53;5003757;28;20392;-74
2022/12/12 07:33:42;;;;;;;47.70;18.88;;;-2.50;99.90;;;-3.66;100.00;97194.06;5019888;28;20515;-72
2022/12/12 07:36:12;;;;;;;72.55;24.20;;;-2.50;99.90;;;-3.88;100.00;97193.91;5011309;28;20068;-72
2022/12/12 07:38:40;;;;;;;71.05;23.63;;;-2.50;99.90;;;-4.07;100.00;97200.50;5004713;28;20479;-72
2022/12/12 07:41:19;;;;;;;57.40;19.95;;;-2.50;99.90;;;-4.17;100.00;97200.41;5004676;28;20476;-72
2022/12/12 07:43:48;;;;;;;61.03;20.05;;;-2.60;99.90;;;-4.23;100.00;97196.97;5005191;28;20046;-72
2022/12/12 07:46:24;;;;;;;62.42;23.48;;;-2.60;99.90;;;-4.17;100.00;97202.94;5002916;28;20969;-72
2022/12/12 07:48:53;;;;;;;50.67;20.02;;;-2.50;99.90;;;-4.01;100.00;97207.34;5000423;28;20064;-72
2022/12/12 07:51:21;;;;;;;40.63;16.08;;;-2.50;99.90;;;-3.83;100.00;97199.88;4999882;28;20160;-72
2022/12/12 07:53:48;;;;;;;35.05;14.52;;;-2.60;99.90;;;-3.78;100.00;97207.53;5000784;28;20058;-72
2022/12/12 07:56:17;;;;;;;44.88;17.30;;;-2.50;99.90;;;-3.71;100.00;97209.25;5006933;28;20054;-72
2022/12/12 07:58:44;;;;;;;42.22;16.88;;;-2.50;99.90;;;-3.50;100.00;97225.47;5019377;28;20041;-72
2022/12/12 08:01:16;;;;;;;40.95;17.88;;;-2.50;99.90;;;-3.55;100.00;97220.38;5008266;28;20057;-72
2022/12/12 08:03:45;;;;;;;46.95;17.80;;;-2.30;99.90;;;-3.45;100.00;97228.91;5007483;28;20045;-72
2022/12/12 08:06:15;;;;;;;45.15;18.48;;;-2.30;99.90;;;-3.48;100.00;97224.66;5019555;28;20049;-72
2022/12/12 08:08:44;;;;;;;41.60;15.25;;;-2.20;99.90;;;-3.46;100.00;97229.75;5003834;28;20077;-72
2022/12/12 08:11:14;;;;;;;46.97;19.10;;;-2.20;99.90;;;-3.38;100.00;97233.16;5005665;28;20053;-72
2022/12/12 08:13:41;;;;;;;39.90;16.13;;;-2.10;99.90;;;-3.39;100.00;97232.31;5006854;28;20092;-72
2022/12/12 08:16:21;;;;;;;39.78;15.38;;;-2.10;99.90;;;-3.23;100.00;97235.81;5006098;28;20498;-73
2022/12/12 08:18:48;;;;;;;39.28;17.05;;;-2.10;99.90;;;-3.19;100.00;97241.78;5006105;28;20373;-72
2022/12/12 08:21:16;;;;;;;40.28;17.85;;;-2.00;99.90;;;-3.25;100.00;97239.19;5005912;28;20068;-72
2022/12/12 08:23:50;;;;;;;40.35;16.92;;;-2.00;99.90;;;-3.23;100.00;97238.34;5006733;28;20050;-72
2022/12/12 08:26:18;;;;;;;38.47;16.08;;;-2.00;99.90;;;-3.19;100.00;97242.63;5009575;28;20162;-72
2022/12/12 08:28:48;;;;;;;41.22;17.35;;;-2.00;99.90;;;-3.24;100.00;97246.81;5006437;28;20050;-72
2022/12/12 08:31:16;;;;;;;42.60;17.15;;;-2.00;99.90;;;-3.25;100.00;97246.81;5006506;28;20096;-72
2022/12/12 08:33:44;;;;;;;39.17;17.63;;;-2.00;99.90;;;-3.26;100.00;97251.03;5006423;28;20046;-72
2022/12/12 08:36:19;;;;;;;39.58;17.38;;;-2.00;99.90;;;-3.48;100.00;97247.50;5003921;28;20058;-72
2022/12/12 08:38:47;;;;;;;36.53;15.35;;;-2.00;99.90;;;-3.30;100.00;97251.00;5005340;28;20082;-72
2022/12/12 08:41:15;;;;;;;34.40;16.85;;;-2.10;99.90;;;-3.20;100.00;97252.75;4985291;28;20431;-72
2022/12/12 08:43:43;;;;;;;35.63;16.08;;;-2.10;99.90;;;-3.21;100.00;97254.44;5006548;28;20046;-72
2022/12/12 08:46:13;;;;;;;41.30;18.15;;;-2.00;99.90;;;-3.07;100.00;97262.13;5008558;28;20395;-72
2022/12/12 08:48:45;;;;;;;;;;;-1.90;99.90;;;-3.18;100.00;97253.59;5006767;28;20133;-73
2022/12/12 08:51:13;;;;;;;31.58;13.68;;;-2.00;99.90;;;-3.17;100.00;97258.72;5007323;28;19921;-72
2022/12/12 08:53:46;;;;;;;39.42;16.48;;;-2.00;99.90;;;-3.01;100.00;97254.56;5005212;28;20056;-72
2022/12/12 08:56:15;;;;;;;36.55;16.35;;;-1.90;99.90;;;-3.09;100.00;97257.91;5005508;28;20132;-72
2022/12/12 08:58:42;;;;;;;45.30;18.80;;;-1.80;99.90;;;-3.26;100.00;97255.22;5007339;28;20049;-72
2022/12/12 09:01:16;;;;;;;37.15;16.42;;;-1.90;99.90;;;-3.10;100.00;97249.44;5003406;28;20145;-72
2022/12/12 09:03:43;;;;;;;40.30;17.67;;;-1.90;99.90;;;-3.22;100.00;97246.81;5001940;28;20088;-72
2022/12/12 09:06:11;;;;;;;42.80;17.92;;;-1.90;99.90;;;-3.17;100.00;97245.13;5006991;28;20054;-72
2022/12/12 09:08:38;;;;;;;36.85;16.00;;;-1.90;99.90;;;-3.18;100.00;97261.22;5004298;28;20057;-72
2022/12/12 09:11:05;;;;;;;41.60;17.50;;;-1.90;99.90;;;-3.13;100.00;97261.25;5006540;28;20045;-72
2022/12/12 09:13:32;;;;;;;41.90;16.75;;;-1.90;99.90;;;-3.04;100.00;97258.78;5004019;28;20064;-72
2022/12/12 09:15:59;;;;;;;36.78;17.25;;;-1.80;99.90;;;-3.12;100.00;97260.41;5004288;28;20146;-72
2022/12/12 09:18:26;;;;;;;35.60;16.70;;;-1.80;99.90;;;-3.04;100.00;97267.22;5006131;28;20120;-72
2022/12/12 09:20:56;;;;;;;40.15;18.77;;;-1.80;99.90;;;-3.02;100.00;97270.63;5006780;28;20367;-72
2022/12/12 09:23:25;;;;;;;48.85;20.23;;;-1.60;99.90;;;-2.75;100.00;97272.47;5002643;28;20045;-72
2022/12/12 09:25:52;;;;;;;49.03;22.35;;;-1.60;99.90;;;-2.75;100.00;97276.72;5005805;28;20064;-72
2022/12/12 09:28:23;;;;;;;55.53;22.67;;;-1.30;99.90;;;-3.21;100.00;97267.13;5002437;28;20420;-72
2022/12/12 09:30:51;;;;;;;43.80;19.45;;;-1.30;99.90;;;-3.07;100.00;97264.69;5003556;28;20873;-72
2022/12/12 09:33:18;;;;;;;51.85;20.20;;;-1.40;99.90;;;-3.01;100.00;97263.84;5019539;28;20073;-72
2022/12/12 09:35:45;;;;;;;46.13;20.00;;;-1.40;99.90;;;-2.99;100.00;97269.78;5005899;28;20063;-72
2022/12/12 09:38:12;;;;;;;53.58;25.98;;;-1.40;99.90;;;-2.68;100.00;97264.88;5003252;28;20419;-72
2022/12/12 09:41:02;;;;;;;62.80;26.42;;;-1.20;99.90;;;-2.89;100.00;97265.63;5004967;28;20088;-72
2022/12/12 09:44:17;;;;;;;50.78;22.65;;;-1.00;99.90;;;-2.44;100.00;97264.13;5004415;28;20060;-72
2022/12/12 09:46:56;;;;;;;48.30;21.13;;;-0.90;99.90;;;-2.15;100.00;97267.59;4999485;28;20064;-72
2022/12/12 09:49:31;;;;;;;44.53;20.33;;;-0.80;99.90;;;-2.55;100.00;97264.94;5003315;28;20136;-72
2022/12/12 09:51:59;;;;;;;46.33;18.88;;;-0.70;99.90;;;-2.35;100.00;97261.63;5004821;28;20476;-72
2022/12/12 09:54:27;;;;;;;48.28;18.73;;;-0.70;99.90;;;-2.89;100.00;97263.09;4999753;28;20060;-72
2022/12/12 09:57:09;;;;;;;38.40;17.50;;;-0.80;99.90;;;-2.37;100.00;97263.34;5004407;28;20085;-72
2022/12/12 09:59:57;;;;;;;39.15;17.92;;;-0.80;99.90;;;-2.20;100.00;97258.28;5004262;28;20061;-72
2022/12/12 10:02:49;;;;;;;34.28;16.13;;;-0.80;99.90;;;-2.16;100.00;97249.81;4998967;28;20093;-72
2022/12/12 10:05:37;;;;;;;42.47;19.23;;;-0.60;99.90;;;-2.27;100.00;97252.31;5004458;28;20045;-72
2022/12/12 10:08:07;;;;;;;37.35;17.42;;;-0.60;99.90;;;-2.07;100.00;97237.13;4988782;28;20065;-72
2022/12/12 10:10:57;;;;;;;40.83;16.33;;;-0.60;99.90;;;-2.17;100.00;97233.69;5000480;28;20077;-72
2022/12/12 10:13:28;;;;;;;35.60;16.75;;;-0.50;99.90;;;-2.14;100.00;97231.19;4999185;28;20065;-72
2022/12/12 10:16:11;;;;;;;37.05;17.00;;;-0.60;99.90;;;-1.96;100.00;97232.91;5001493;28;20056;-72
2022/12/12 10:18:44;;;;;;;36.80;17.02;;;-0.60;99.90;;;-1.85;100.00;97221.88;5005033;28;20053;-72
2022/12/12 10:21:29;;;;;;;39.75;17.70;;;-0.40;99.90;;;-1.56;100.00;97226.97;5018836;28;20298;-72
2022/12/12 10:24:06;;;;;;;30.90;16.17;;;-0.30;99.90;;;-1.47;100.00;97224.44;5005444;28;20116;-72
2022/12/12 10:26:33;;;;;;;40.38;17.48;;;0.00;99.90;;;-1.65;100.00;97225.28;5005844;28;20060;-72
2022/12/12 10:29:11;;;;;;;38.65;17.92;;;0.00;99.90;;;-1.61;100.00;97221.88;5004496;28;20479;-72
2022/12/12 10:31:41;;;;;;;37.42;16.90;;;0.10;99.90;;;-1.58;100.00;97216.78;5003979;28;20165;-72
2022/12/12 10:34:51;;;;;;;39.03;17.27;;;0.20;99.90;;;-1.56;100.00;97211.72;5006406;28;20057;-72
2022/12/12 10:37:45;;;;;;;29.98;15.73;;;0.10;99.90;;;-1.71;100.00;97200.69;5006618;28;20076;-72
2022/12/12 10:40:38;;;;;;;30.33;14.35;;;-0.10;99.90;;;-1.65;100.00;97210.00;5012910;28;20061;-72